Time;durP1;ratioP1;P1;durP2;ratioP2;P2;SDS_P1;SDS_P2;PMS_P1;PMS_P2;Temp;Humidity;BMP_temperature;BMP_pressure;BME280_temperature;BME280_humidity;BME280_pressure;Samples;Min_cycle;Max_cycle;Signal;HPM_P1;HPM_P2
2023/03/08 00:00:14;;;;;;;45.87;23.87;;;3.50;99.90;;;1.43;89.21;98735.06;10296067;28;96642;-86
2023/03/08 00:05:17;;;;;;;41.43;24.53;;;3.40;99.90;;;1.27;89.59;98730.47;10338786;28;96684;-85
2023/03/08 00:10:20;;;;;;;55.83;26.70;;;3.30;99.90;;;1.19;90.04;98727.72;10320348;28;97722;-86
2023/03/08 00:15:24;;;;;;;64.80;26.47;;;3.20;99.90;;;1.25;91.08;98729.78;10334334;28;96536;-86
2023/03/08 00:20:27;;;;;;;77.07;27.77;;;3.20;99.90;;;1.27;91.50;98731.28;10320266;28;96534;-86
2023/03/08 00:25:30;;;;;;;101.33;39.03;;;3.20;99.90;;;1.23;91.43;98719.44;10335331;28;98333;-86
2023/03/08 00:30:33;;;;;;;79.80;33.10;;;3.20;99.90;;;1.20;92.07;98713.66;10322902;28;98811;-86
2023/03/08 00:35:36;;;;;;;44.10;22.17;;;3.10;99.90;;;1.15;91.91;98727.22;10335004;28;96434;-86
2023/03/08 00:40:39;;;;;;;56.90;26.23;;;3.10;99.90;;;1.09;92.84;98743.50;10316536;28;97304;-87
2023/03/08 00:45:42;;;;;;;63.77;29.13;;;3.10;99.90;;;1.00;92.70;98733.88;10307708;28;96844;-86
2023/03/08 00:50:46;;;;;;;57.97;28.33;;;3.00;99.90;;;0.87;92.93;98723.72;10335656;28;96539;-86
2023/03/08 00:55:56;;;;;;;79.03;32.27;;;2.90;99.90;;;0.78;93.16;98724.56;10359809;28;96862;-86
2023/03/08 01:00:59;;;;;;;73.40;32.07;;;2.80;99.90;;;0.72;93.63;98725.97;10308139;28;98513;-86
2023/03/08 01:06:12;;;;;;;53.60;26.57;;;2.70;99.90;;;0.74;93.63;98733.66;10312585;28;96537;-86
2023/03/08 01:11:23;;;;;;;52.47;27.33;;;2.70;99.90;;;0.95;95.25;98730.84;10273023;28;96522;-88
2023/03/08 01:16:30;;;;;;;52.30;27.90;;;2.80;99.90;;;1.00;95.39;98741.72;10333046;28;96646;-88
2023/03/08 01:21:33;;;;;;;46.30;22.53;;;2.90;99.90;;;0.93;95.37;98740.63;10322335;28;96486;-88
2023/03/08 01:26:36;;;;;;;42.47;22.50;;;2.80;99.90;;;1.22;97.38;98753.63;10308226;28;96404;-88
2023/03/08 01:31:39;;;;;;;41.03;21.87;;;3.00;99.90;;;1.70;98.97;98748.16;10331384;28;96572;-88
2023/03/08 01:36:42;;;;;;;38.63;21.33;;;3.40;99.90;;;2.16;100.00;98748.97;10310895;28;96472;-88
2023/03/08 01:41:47;;;;;;;40.67;22.63;;;3.70;99.90;;;2.58;100.00;98750.94;10370842;28;96506;-88
2023/03/08 01:46:50;;;;;;;30.80;17.83;;;4.10;99.90;;;2.64;100.00;98753.78;10327621;28;97210;-88
2023/03/08 01:52:05;;;;;;;27.80;16.70;;;4.30;99.90;;;2.53;100.00;98745.34;10322593;28;96673;-88
2023/03/08 01:57:19;;;;;;;71.60;28.57;;;4.30;99.90;;;2.34;100.00;98765.50;10341516;28;96650;-88
2023/03/08 02:02:28;;;;;;;69.00;27.47;;;4.20;99.90;;;2.13;100.00;98768.41;10320344;28;97340;-88
2023/03/08 02:07:31;;;;;;;55.53;25.37;;;4.10;99.90;;;1.92;100.00;98767.88;10322941;28;97907;-87
2023/03/08 02:12:35;;;;;;;67.70;27.20;;;3.90;99.90;;;1.73;100.00;98770.59;10322429;28;98313;-87
2023/03/08 02:17:41;;;;;;;73.50;30.27;;;3.70;99.90;;;1.54;100.00;98769.72;10307088;28;96733;-86
2023/03/08 02:22:45;;;;;;;50.67;22.70;;;3.60;99.90;;;1.41;100.00;98774.47;10321622;28;96519;-86
2023/03/08 02:27:52;;;;;;;50.70;20.13;;;3.40;99.90;;;1.28;100.00;98777.44;10316851;28;97019;-86
2023/03/08 02:32:55;;;;;;;44.13;21.53;;;3.30;99.90;;;1.19;100.00;98790.53;10296950;28;97761;-86
2023/03/08 02:37:58;;;;;;;56.77;25.93;;;3.10;99.90;;;1.13;100.00;98794.53;10341603;28;97355;-86
2023/03/08 02:43:02;;;;;;;57.03;24.40;;;3.10;99.90;;;1.03;100.00;98805.03;10338308;28;97062;-86
2023/03/08 02:48:05;;;;;;;53.20;23.63;;;3.00;99.90;;;1.09;100.00;98795.81;10329685;28;97407;-86
2023/03/08 02:53:08;;;;;;;61.37;27.77;;;3.00;99.90;;;1.33;100.00;98796.16;10334373;28;96654;-86
2023/03/08 02:58:11;;;;;;;52.50;26.10;;;3.20;99.90;;;1.67;100.00;98803.44;10314790;28;96610;-86
2023/03/08 03:03:16;;;;;;;53.40;26.93;;;3.40;99.90;;;1.86;100.00;98813.81;10333533;28;96605;-85
2023/03/08 03:08:19;;;;;;;52.13;27.77;;;3.60;99.90;;;2.11;100.00;98817.53;10315180;28;98291;-87
2023/03/08 03:13:22;;;;;;;50.23;26.83;;;3.80;99.90;;;2.30;100.00;98816.56;10313768;28;96644;-86
2023/03/08 03:18:25;;;;;;;50.90;24.80;;;4.00;99.90;;;2.37;100.00;98832.53;10315234;28;97833;-87
2023/03/08 03:23:28;;;;;;;48.73;25.50;;;4.10;99.90;;;2.48;100.00;98839.38;10367750;28;97985;-88
2023/03/08 03:28:32;;;;;;;58.17;29.03;;;4.20;99.90;;;2.62;100.00;98841.44;10309835;28;96554;-90
2023/03/08 03:33:35;;;;;;;47.97;26.53;;;4.30;99.90;;;2.81;100.00;98853.56;10305686;28;98097;-89
2023/03/08 03:38:39;;;;;;;49.30;25.43;;;4.50;99.90;;;2.93;100.00;98860.22;10302061;28;97088;-90
2023/03/08 03:43:43;;;;;;;48.07;26.37;;;4.60;99.90;;;2.99;100.00;98851.75;10317628;28;98346;-90
2023/03/08 03:48:46;;;;;;;51.03;26.40;;;4.70;99.90;;;3.00;100.00;98853.44;10292047;28;96674;-91
2023/03/08 03:53:49;;;;;;;52.20;28.40;;;4.70;99.90;;;3.03;100.00;98862.78;10269467;28;96613;-86
2023/03/08 03:58:53;;;;;;;52.70;28.63;;;4.70;99.90;;;3.04;100.00;98864.44;10277528;28;97602;-87
2023/03/08 04:03:57;;;;;;;66.03;34.70;;;4.70;99.90;;;3.00;100.00;98869.16;10292068;28;96529;-87
2023/03/08 04:09:05;;;;;;;59.00;32.77;;;4.70;99.90;;;2.94;100.00;98865.34;10296785;28;98428;-88
2023/03/08 04:14:10;;;;;;;61.27;30.90;;;4.70;99.90;;;2.91;100.00;98854.31;10314418;28;96776;-87
2023/03/08 04:19:13;;;;;;;56.13;29.33;;;4.60;99.90;;;2.88;100.00;98844.97;10311526;28;97548;-88
2023/03/08 04:24:16;;;;;;;53.17;27.90;;;4.60;99.90;;;2.87;100.00;98845.09;10332020;28;96643;-87
2023/03/08 04:29:20;;;;;;;52.63;27.47;;;4.60;99.90;;;2.84;100.00;98848.03;10315544;28;97763;-87
2023/03/08 04:34:22;;;;;;;49.70;27.20;;;4.60;99.90;;;2.77;100.00;98863.56;10300527;28;96580;-87
2023/03/08 04:39:26;;;;;;;55.30;27.80;;;4.50;99.90;;;2.73;100.00;98871.88;10309447;28;96944;-87
2023/03/08 04:44:29;;;;;;;51.30;26.33;;;4.50;99.90;;;2.76;100.00;98871.56;10309312;28;98754;-87
2023/03/08 04:49:32;;;;;;;44.90;25.27;;;4.50;99.90;;;2.85;100.00;98866.25;10328691;28;96744;-90
2023/03/08 04:54:35;;;;;;;41.03;23.53;;;4.50;99.90;;;2.97;100.00;98876.50;10327144;28;97722;-89
2023/03/08 04:59:38;;;;;;;41.37;22.07;;;4.60;99.90;;;3.03;100.00;98886.41;10274294;28;96660;-83
2023/03/08 05:04:41;;;;;;;39.30;22.10;;;4.70;99.90;;;3.06;100.00;98883.47;10291722;28;96691;-82
2023/03/08 05:09:44;;;;;;;40.43;22.53;;;4.70;99.90;;;3.12;100.00;98888.09;10309227;28;97383;-82
2023/03/08 05:14:47;;;;;;;32.93;19.33;;;4.80;99.90;;;3.17;98.74;98885.84;10344291;28;96496;-83
2023/03/08 05:19:50;;;;;;;30.70;17.17;;;4.80;99.90;;;3.16;97.25;98879.78;10316641;28;97867;-82
2023/03/08 05:24:53;;;;;;;27.20;15.80;;;4.90;99.90;;;3.13;96.21;98884.53;10288108;28;98643;-82
2023/03/08 05:29:56;;;;;;;25.67;14.20;;;4.90;99.90;;;3.10;94.51;98887.44;10318831;28;96674;-82
2023/03/08 05:34:59;;;;;;;23.83;14.37;;;4.80;99.90;;;3.15;92.89;98893.06;10324397;28;98404;-82
2023/03/08 05:40:05;;;;;;;22.07;13.00;;;4.90;99.90;;;3.27;91.14;98909.41;10352023;28;96746;-81
2023/03/08 05:45:08;;;;;;;25.60;14.40;;;5.00;99.90;;;3.39;89.39;98914.25;10302300;28;97797;-82
2023/03/08 05:50:12;;;;;;;18.67;11.17;;;5.00;99.90;;;3.62;86.02;98914.56;10314695;28;98685;-82
2023/03/08 05:55:15;;;;;;;24.90;11.63;;;5.30;99.90;;;3.83;83.92;98924.69;10298494;28;98327;-82
2023/03/08 06:00:18;;;;;;;15.20;10.23;;;5.40;99.90;;;4.03;81.10;98936.66;10313611;28;96816;-83
2023/03/08 06:05:21;;;;;;;18.63;9.70;;;5.70;99.90;;;4.23;79.76;98950.38;10327810;28;96660;-87
2023/03/08 06:10:25;;;;;;;16.57;9.13;;;5.80;99.90;;;4.37;78.32;98942.84;10315479;28;96516;-85
2023/03/08 06:15:28;;;;;;;16.43;9.27;;;6.00;99.90;;;4.54;75.53;98963.78;10311100;28;96874;-87
2023/03/08 06:20:31;;;;;;;13.77;8.03;;;6.10;99.90;;;4.71;73.15;98958.59;10320351;28;98572;-82
2023/03/08 06:25:34;;;;;;;13.93;8.67;;;6.30;99.90;;;4.92;70.53;98971.28;10336765;28;96737;-84
2023/03/08 06:30:38;;;;;;;18.47;9.30;;;6.50;99.90;;;5.10;68.11;98964.13;10321866;28;96640;-84
2023/03/08 06:35:41;;;;;;;21.30;11.37;;;6.70;98.10;;;5.37;66.18;98970.84;10338296;28;96654;-84
2023/03/08 06:40:44;;;;;;;13.57;8.00;;;6.90;97.30;;;5.64;65.79;98967.91;10343071;28;96557;-85
2023/03/08 06:45:47;;;;;;;16.00;8.23;;;7.20;96.50;;;5.89;64.17;98975.78;10352513;28;96584;-84
2023/03/08 06:50:50;;;;;;;14.53;8.93;;;7.40;95.40;;;6.11;62.34;98982.16;10318674;28;96465;-82
2023/03/08 06:55:54;;;;;;;12.50;7.33;;;7.60;94.10;;;6.20;61.67;99004.91;10301940;28;97415;-82
2023/03/08 07:00:58;;;;;;;13.80;8.07;;;7.80;93.50;;;6.19;60.43;98994.53;10318605;28;96588;-82
2023/03/08 07:06:08;;;;;;;13.10;8.20;;;7.80;92.40;;;6.11;58.82;99004.09;10336465;28;96515;-82
2023/03/08 07:11:11;;;;;;;11.03;6.40;;;7.70;90.70;;;6.03;59.41;99017.31;10335395;28;96432;-83
2023/03/08 07:16:14;;;;;;;10.97;7.17;;;7.70;90.40;;;5.98;58.96;99024.06;10300449;28;96624;-83
2023/03/08 07:21:17;;;;;;;12.93;7.33;;;7.60;90.60;;;6.01;59.33;99026.38;10335737;28;96374;-83
2023/03/08 07:26:20;;;;;;;13.00;7.77;;;7.60;90.70;;;6.05;58.35;99031.13;10329726;28;97509;-82
2023/03/08 07:31:25;;;;;;;19.90;10.33;;;7.60;89.80;;;6.19;58.50;99024.38;10309367;28;96698;-82
2023/03/08 07:36:28;;;;;;;11.20;7.10;;;7.80;90.40;;;6.33;57.60;99033.41;10286009;28;96521;-82
2023/03/08 07:41:33;;;;;;;12.87;7.90;;;7.90;88.40;;;6.43;56.28;99034.03;10333563;28;96502;-82
2023/03/08 07:46:36;;;;;;;11.57;7.07;;;8.00;87.30;;;6.58;56.09;99042.88;10331494;28;96443;-83
2023/03/08 07:51:39;;;;;;;12.60;8.10;;;8.10;86.60;;;6.70;55.79;99043.34;10333642;28;96746;-83
2023/03/08 07:56:42;;;;;;;13.93;8.23;;;8.30;85.90;;;6.83;54.94;99048.88;10317436;28;96565;-85
2023/03/08 08:01:45;;;;;;;12.03;6.70;;;8.40;84.30;;;6.93;54.06;99048.69;10350366;28;96398;-83
2023/03/08 08:06:49;;;;;;;10.93;6.73;;;8.50;81.90;;;6.96;53.73;99059.75;10315166;28;96568;-83
2023/03/08 08:11:52;;;;;;;10.27;6.73;;;8.60;82.30;;;7.10;54.05;99060.81;10351391;28;96574;-83
2023/03/08 08:16:56;;;;;;;16.47;7.93;;;8.60;82.60;;;7.29;53.47;99064.00;10295460;28;97579;-83
2023/03/08 08:21:59;;;;;;;13.83;7.53;;;8.90;82.40;;;7.50;54.83;99074.78;10295633;28;96837;-83
2023/03/08 08:27:03;;;;;;;13.47;8.13;;;9.00;83.90;;;7.70;54.36;99078.59;10348887;28;96691;-83
2023/03/08 08:32:07;;;;;;;19.03;9.90;;;9.20;83.20;;;7.83;54.25;99078.00;10332772;28;96491;-83
2023/03/08 08:37:10;;;;;;;16.70;8.33;;;9.40;83.30;;;8.19;52.96;99070.25;10331496;28;97654;-83
2023/03/08 08:42:13;;;;;;;12.27;8.30;;;9.70;82.40;;;8.83;52.91;99059.19;10349535;28;96470;-84
2023/03/08 08:47:16;;;;;;;14.03;9.00;;;10.10;82.10;;;9.19;51.27;99075.13;10321942;28;96468;-83
2023/03/08 08:52:19;;;;;;;11.97;7.80;;;10.50;79.90;;;9.17;49.34;99066.50;10331724;28;96643;-82
2023/03/08 08:57:22;;;;;;;11.80;8.50;;;10.60;77.40;;;8.91;49.90;99055.59;10327439;28;96536;-83
2023/03/08 09:02:25;;;;;;;11.73;7.73;;;10.50;76.90;;;8.75;50.04;99038.91;10332879;28;98394;-83
2023/03/08 09:07:28;;;;;;;10.27;6.70;;;10.40;76.70;;;8.62;50.30;99041.38;10316339;28;96753;-83
2023/03/08 09:12:31;;;;;;;11.70;7.60;;;10.20;76.40;;;9.04;50.02;99042.50;10331460;28;96545;-83
2023/03/08 09:17:34;;;;;;;11.57;7.50;;;10.40;77.30;;;9.26;49.17;99048.69;10309504;28;97408;-83
2023/03/08 09:22:38;;;;;;;14.10;8.50;;;10.60;76.50;;;9.28;48.27;99036.88;10330849;28;96610;-84
2023/03/08 09:27:41;;;;;;;15.47;7.87;;;10.80;74.70;;;9.52;49.12;99029.56;10330092;28;96514;-83
2023/03/08 09:32:44;;;;;;;12.73;8.67;;;10.80;75.80;;;10.15;46.96;99020.72;10330779;28;96574;-84
2023/03/08 09:37:47;;;;;;;14.00;8.55;;;11.30;73.90;;;10.76;45.31;99019.25;10347479;28;98352;-83
2023/03/08 09:42:53;;;;;;;13.73;8.73;;;11.90;72.10;;;10.79;45.04;99030.28;10333738;28;96655;-83
2023/03/08 09:48:28;;;;;;;11.90;7.97;;;12.30;69.90;;;11.17;44.82;99032.50;10349722;28;96570;-83
2023/03/08 09:53:45;;;;;;;10.32;7.05;;;12.60;68.80;;;11.42;43.77;99022.94;10338662;28;96719;-84
2023/03/08 09:59:13;;;;;;;11.27;8.45;;;12.90;66.90;;;11.29;42.94;99012.28;10326795;28;97604;-84
2023/03/08 10:05:12;;;;;;;96.45;86.22;;;12.90;64.70;;;11.46;43.44;99005.56;10337922;28;96465;-84
2023/03/08 10:10:52;;;;;;;14.40;10.90;;;12.80;65.40;;;11.49;42.31;99001.66;10296829;28;96481;-83
2023/03/08 10:16:34;;;;;;;9.43;7.13;;;13.00;63.80;;;11.36;41.74;99001.66;10314409;28;98080;-83
2023/03/08 10:21:39;;;;;;;;;;;12.90;63.00;;;10.99;41.87;99001.97;10349045;28;96930;-84
2023/03/08 10:26:43;;;;;;;15.63;8.93;;;12.60;62.60;;;10.91;42.74;99003.97;10337325;28;96522;-83
2023/03/08 10:31:47;;;;;;;18.97;10.23;;;12.50;63.50;;;11.13;42.70;99009.97;10334643;28;96547;-83
2023/03/08 10:37:05;;;;;;;12.88;8.18;;;12.70;62.80;;;11.33;41.22;98997.53;10328642;28;97089;-83
2023/03/08 10:42:15;;;;;;;10.27;7.20;;;12.90;61.70;;;11.62;42.49;99006.19;10317873;28;96670;-83
2023/03/08 10:47:33;;;;;;;13.23;7.97;;;13.10;61.80;;;11.91;41.23;98991.69;10351365;28;97104;-84
2023/03/08 10:52:36;;;;;;;9.25;6.35;;;13.50;61.60;;;12.07;41.30;98987.78;10352146;28;96604;-84
2023/03/08 10:57:44;;;;;;;10.52;7.15;;;13.60;60.50;;;12.03;41.02;98974.06;10368972;28;96405;-84
2023/03/08 11:02:47;;;;;;;8.43;5.55;;;13.70;59.90;;;12.17;40.49;98967.66;10349828;28;96486;-84
2023/03/08 11:07:59;;;;;;;10.85;6.10;;;13.80;59.20;;;12.28;39.66;98975.03;10332738;28;96553;-84
2023/03/08 11:13:17;;;;;;;9.13;6.65;;;13.80;57.80;;;12.38;38.89;98955.97;10319256;28;96554;-84
2023/03/08 11:19:16;;;;;;;10.18;5.95;;;14.00;58.20;;;12.50;39.13;98959.59;10368172;28;96545;-84
2023/03/08 11:24:46;;;;;;;7.50;5.20;;;14.10;56.50;;;12.66;39.01;98955.66;10329202;28;96775;-84
2023/03/08 11:30:49;;;;;;;7.97;5.47;;;14.30;56.80;;;13.11;38.36;98945.78;10368064;28;96593;-85
2023/03/08 11:36:26;;;;;;;11.02;8.40;;;14.70;56.80;;;13.47;38.60;98946.19;10319635;28;96639;-84
2023/03/08 11:42:06;;;;;;;11.07;7.65;;;15.10;56.20;;;13.70;38.75;98925.06;10318542;28;96382;-84
2023/03/08 11:47:37;;;;;;;16.48;9.50;;;15.40;56.50;;;13.40;38.37;98938.22;10334720;28;97492;-84
2023/03/08 11:53:08;;;;;;;12.13;8.15;;;15.20;56.10;;;12.85;38.55;98941.41;10334052;28;97447;-85
2023/03/08 11:58:27;;;;;;;10.70;7.65;;;14.70;55.50;;;12.32;39.51;98946.13;10335854;28;96571;-84
2023/03/08 12:03:37;;;;;;;12.02;8.13;;;14.20;56.50;;;11.79;40.55;98939.03;10332628;28;96693;-84
2023/03/08 12:09:00;;;;;;;11.88;8.10;;;13.60;57.50;;;11.47;41.90;98927.38;10305519;28;97026;-84
2023/03/08 12:14:32;;;;;;;11.77;8.00;;;13.20;58.50;;;11.30;42.52;98915.50;10319079;28;96475;-83
2023/03/08 12:19:45;;;;;;;15.13;8.83;;;13.00;59.20;;;11.15;42.63;98904.22;10278966;28;97629;-84
2023/03/08 12:25:01;;;;;;;14.00;8.37;;;12.80;59.60;;;11.11;43.22;98903.84;10348125;28;96490;-84
2023/03/08 12:30:49;;;;;;;22.40;12.57;;;12.70;60.00;;;11.01;42.80;98908.72;10315634;28;96697;-84
2023/03/08 12:36:00;;;;;;;14.17;8.67;;;12.70;59.40;;;10.83;42.73;98905.81;10322294;28;96865;-84
2023/03/08 12:41:19;;;;;;;13.40;8.07;;;12.50;59.50;;;10.62;42.87;98896.19;10308978;28;97401;-84
2023/03/08 12:46:21;;;;;;;13.37;8.13;;;12.30;59.70;;;10.63;43.31;98885.34;10319440;28;96563;-84
2023/03/08 12:51:34;;;;;;;12.57;8.77;;;12.20;60.40;;;10.74;43.43;98872.50;10347818;28;96581;-84
2023/03/08 12:56:51;;;;;;;105.87;48.40;;;12.30;60.40;;;10.77;42.49;98854.31;10330468;28;96580;-84
2023/03/08 13:01:57;;;;;;;17.87;9.77;;;12.30;59.50;;;11.05;42.43;98832.06;10299169;28;96542;-84
2023/03/08 13:07:32;;;;;;;258.40;141.33;;;12.50;59.30;;;11.38;41.48;98827.53;10314772;28;96549;-84
2023/03/08 13:13:10;;;;;;;136.50;71.63;;;12.90;58.40;;;11.33;39.92;98822.00;10317552;28;97474;-84
2023/03/08 13:18:35;;;;;;;254.10;141.53;;;12.90;56.00;;;11.07;40.06;98801.56;10320899;28;96976;-85
2023/03/08 13:24:15;;;;;;;136.63;75.73;;;12.80;56.80;;;11.07;40.80;98787.47;10331843;28;96497;-83
2023/03/08 13:29:20;;;;;;;150.33;85.23;;;12.70;57.40;;;11.10;41.01;98779.09;10297570;28;96474;-84
2023/03/08 13:34:30;;;;;;;151.53;102.80;;;12.70;57.70;;;11.13;41.84;98766.19;10275570;28;96484;-83
2023/03/08 13:39:33;;;;;;;25.50;16.63;;;12.80;58.30;;;11.19;42.10;98753.91;10338916;28;96648;-84
2023/03/08 13:44:36;;;;;;;12.90;8.27;;;12.80;58.80;;;11.10;41.90;98747.19;10331726;28;96416;-83
2023/03/08 13:49:44;;;;;;;12.77;7.23;;;12.70;58.40;;;11.00;41.92;98750.25;10312946;28;96564;-83
2023/03/08 13:55:03;;;;;;;37.47;17.63;;;12.60;58.50;;;10.89;42.05;98742.91;10345452;28;96530;-83
2023/03/08 14:00:31;;;;;;;14.73;8.13;;;12.60;58.60;;;10.90;42.07;98758.63;10298413;28;96485;-83
2023/03/08 14:05:42;;;;;;;651.70;354.53;;;12.60;58.70;;;10.98;41.90;98762.94;10314559;28;96475;-83
2023/03/08 14:10:59;;;;;;;73.20;38.03;;;12.60;58.50;;;11.02;41.70;98747.38;10331905;28;96466;-83
2023/03/08 14:16:06;;;;;;;93.23;63.00;;;12.70;58.20;;;11.03;42.05;98739.19;10296304;28;96845;-83
2023/03/08 14:21:27;;;;;;;56.10;42.70;;;12.60;58.80;;;11.08;42.54;98739.41;10329058;27;96554;-84
2023/03/08 14:26:51;;;;;;;40.30;28.87;;;12.70;59.20;;;11.19;42.68;98740.63;10350130;28;96414;-83
2023/03/08 14:32:00;;;;;;;19.93;16.43;;;12.80;59.30;;;11.23;42.82;98740.00;10327599;28;96604;-83
2023/03/08 14:37:21;;;;;;;19.53;12.87;;;12.80;59.70;;;11.18;43.29;98739.81;10324774;28;96628;-83
2023/03/08 14:42:29;;;;;;;;;;;12.80;59.50;;;11.13;43.93;98757.41;10335377;28;96493;-83
2023/03/08 14:47:34;;;;;;;15.20;7.53;;;12.70;61.20;;;10.99;44.82;98740.66;10334787;28;97208;-84
2023/03/08 14:52:47;;;;;;;16.93;9.10;;;12.60;61.20;;;10.83;45.63;98741.88;10350985;28;96594;-84
2023/03/08 14:58:26;;;;;;;9.00;6.10;;;12.50;62.40;;;10.67;46.78;98734.31;10321112;28;97283;-83
2023/03/08 15:03:34;;;;;;;10.70;5.40;;;12.30;64.70;;;10.53;47.46;98724.72;10347832;28;98055;-87
2023/03/08 15:08:36;;;;;;;9.17;5.43;;;12.10;64.70;;;10.42;48.34;98713.66;10334779;28;98530;-83
2023/03/08 15:13:40;;;;;;;11.50;6.07;;;12.00;65.90;;;10.41;49.04;98701.41;10312654;28;97447;-82
2023/03/08 15:18:43;;;;;;;11.87;5.77;;;12.00;66.50;;;10.43;49.59;98699.38;10302319;28;96543;-84
2023/03/08 15:23:47;;;;;;;9.37;5.33;;;12.00;67.10;;;10.40;50.21;98691.00;10308836;28;97557;-84
2023/03/08 15:28:51;;;;;;;14.73;5.87;;;11.90;68.10;;;10.34;51.15;98682.00;10343693;28;96516;-87
2023/03/08 15:33:54;;;;;;;12.73;7.30;;;11.90;68.80;;;10.28;51.79;98679.34;10327812;28;98455;-87
2023/03/08 15:38:58;;;;;;;294.30;142.97;;;11.90;69.90;;;10.21;52.41;98676.66;10323716;28;97304;-86
2023/03/08 15:44:01;;;;;;;122.47;63.77;;;11.80;70.30;;;10.13;53.05;98653.75;10345006;28;97789;-85
2023/03/08 15:49:05;;;;;;;23.60;13.20;;;11.70;71.10;;;10.09;53.59;98633.16;10329949;28;97508;-86
2023/03/08 15:54:09;;;;;;;23.90;12.17;;;11.60;71.70;;;10.04;54.42;98635.59;10315026;28;96576;-89
2023/03/08 15:59:13;;;;;;;23.27;13.23;;;11.60;72.60;;;10.02;54.97;98635.00;10330057;28;97353;-87
2023/03/08 16:04:16;;;;;;;16.63;8.07;;;11.60;73.00;;;9.98;55.25;98625.78;10331227;28;96884;-86
2023/03/08 16:09:19;;;;;;;13.63;7.40;;;11.50;73.90;;;9.95;55.95;98627.00;10320874;28;96881;-85
2023/03/08 16:14:22;;;;;;;22.63;12.20;;;11.50;75.00;;;9.92;56.82;98630.06;10322304;28;96522;-88
2023/03/08 16:19:25;;;;;;;17.27;9.00;;;11.50;75.50;;;9.89;57.66;98620.66;10308107;28;97374;-86
2023/03/08 16:24:28;;;;;;;19.90;10.40;;;11.50;75.90;;;9.88;58.21;98623.50;10344767;28;98521;-81
2023/03/08 16:29:32;;;;;;;28.70;12.97;;;11.40;76.80;;;9.86;58.92;98629.03;10298600;28;96705;-88
2023/03/08 16:34:36;;;;;;;35.17;12.50;;;11.40;77.70;;;9.83;59.57;98618.81;10305769;28;97575;-87
2023/03/08 16:39:39;;;;;;;114.80;36.30;;;11.40;78.70;;;9.78;60.18;98613.31;10335718;28;98828;-86
2023/03/08 16:44:52;;;;;;;31.20;12.27;;;11.40;79.60;;;9.74;60.96;98614.72;10306665;28;96616;-84
2023/03/08 16:49:55;;;;;;;20.33;10.83;;;11.30;80.00;;;9.69;62.33;98606.53;10310432;28;97367;-84
2023/03/08 16:55:04;;;;;;;23.20;13.30;;;11.30;81.60;;;9.63;63.04;98596.75;10324283;28;96590;-84
2023/03/08 17:00:11;;;;;;;19.10;10.63;;;11.20;82.90;;;9.61;63.75;98604.09;10325757;28;96599;-86
2023/03/08 17:05:14;;;;;;;14.67;8.50;;;11.20;83.90;;;9.59;64.71;98588.34;10354472;28;96792;-92
2023/03/08 17:10:17;;;;;;;15.17;9.23;;;11.20;85.60;;;9.61;65.63;98586.34;10311587;28;98310;-92
2023/03/08 17:15:20;;;;;;;18.43;10.93;;;11.20;87.30;;;9.64;66.82;98591.22;10338769;28;96577;-93
2023/03/08 17:20:23;;;;;;;17.43;9.47;;;11.20;89.60;;;9.65;67.31;98579.63;10347881;28;96879;-92
2023/03/08 17:25:38;;;;;;;16.67;9.70;;;11.20;90.30;;;9.63;67.90;98591.44;10342848;28;96620;-93
2023/03/08 17:30:43;;;;;;;18.57;9.50;;;11.20;90.80;;;9.64;68.47;98603.66;10341698;28;97603;-92
2023/03/08 17:35:46;;;;;;;16.97;8.93;;;11.20;91.60;;;9.65;68.72;98597.34;10357783;28;97178;-92
2023/03/08 17:40:49;;;;;;;21.43;12.93;;;11.20;92.00;;;9.68;69.36;98596.97;10372544;28;97319;-91
2023/03/08 17:46:02;;;;;;;16.00;10.67;;;11.20;92.60;;;9.73;69.98;98593.72;10361038;28;96677;-92
2023/03/08 17:51:12;;;;;;;16.87;10.80;;;11.20;93.40;;;9.77;70.04;98603.69;10306272;28;97800;-92
2023/03/08 17:56:27;;;;;;;25.20;14.50;;;11.30;93.70;;;9.82;70.26;98613.72;10341519;28;98079;-92
2023/03/08 18:01:31;;;;;;;18.43;10.17;;;11.30;94.00;;;9.84;70.07;98609.84;10324917;28;96531;-92
2023/03/08 18:06:39;;;;;;;21.03;11.20;;;11.30;94.40;;;9.90;70.52;98603.75;10320520;28;98540;-93
2023/03/08 18:11:42;;;;;;;13.13;7.97;;;11.40;95.00;;;10.00;70.30;98595.34;10301722;28;97076;-92
2023/03/08 18:16:45;;;;;;;16.80;9.27;;;11.50;95.40;;;10.01;70.10;98585.56;10341689;28;96642;-87
2023/03/08 18:21:52;;;;;;;20.07;11.47;;;11.50;95.40;;;9.97;70.10;98587.00;10354596;28;98362;-87
2023/03/08 18:26:56;;;;;;;12.63;7.03;;;11.50;95.40;;;9.94;70.43;98572.28;10307360;28;98326;-86
2023/03/08 18:32:01;;;;;;;14.77;7.87;;;11.50;95.60;;;9.91;70.69;98562.91;10344514;28;97087;-86
2023/03/08 18:37:05;;;;;;;19.53;11.70;;;11.50;95.90;;;9.88;70.90;98562.50;10314287;28;97691;-86
2023/03/08 18:42:37;;;;;;;16.60;9.50;;;11.40;96.00;;;9.75;71.27;98549.22;10304902;28;99111;-85
2023/03/08 18:49:06;;;;;;;15.27;8.37;;;11.30;96.30;;;9.58;71.52;98524.91;10309790;28;96536;-85
2023/03/08 18:54:02;;;;;;;12.07;7.50;;;11.20;96.50;;;9.46;72.30;98516.75;10330665;28;98311;-86
2023/03/08 18:59:07;;;;;;;13.20;7.50;;;11.10;97.10;;;9.45;72.67;98512.47;10327163;28;96480;-87
2023/03/08 19:04:10;;;;;;;14.77;8.30;;;11.00;97.40;;;9.53;73.00;98514.09;10318306;28;96753;-87
2023/03/08 19:09:16;;;;;;;10.90;6.10;;;11.00;98.10;;;9.56;73.04;98506.56;10303072;28;96407;-87
2023/03/08 19:14:19;;;;;;;13.77;7.57;;;11.10;98.20;;;9.57;73.34;98510.03;10310489;28;96491;-87
2023/03/08 19:19:23;;;;;;;68.10;35.43;;;11.10;98.50;;;9.59;73.43;98516.75;10310672;28;96614;-88
2023/03/08 19:24:26;;;;;;;60.63;29.20;;;11.10;98.60;;;9.65;73.09;98523.09;10323530;28;96660;-87
2023/03/08 19:29:31;;;;;;;11.60;5.97;;;11.20;98.60;;;9.78;73.23;98531.06;10334007;28;96585;-88
2023/03/08 19:34:39;;;;;;;13.47;7.20;;;11.20;98.90;;;9.86;72.83;98522.91;10317147;28;97030;-87
2023/03/08 19:39:42;;;;;;;20.23;11.47;;;11.30;98.90;;;9.85;72.60;98520.47;10329005;28;96723;-87
2023/03/08 19:44:47;;;;;;;55.47;31.73;;;11.30;98.80;;;9.77;72.58;98523.28;10295164;28;97785;-87
2023/03/08 19:49:50;;;;;;;17.90;9.20;;;11.30;98.80;;;9.67;73.05;98517.59;10313468;28;98393;-86
2023/03/08 19:54:53;;;;;;;8.67;5.27;;;11.20;99.00;;;9.56;73.20;98525.13;10338126;28;97406;-87
2023/03/08 19:59:58;;;;;;;7.53;4.90;;;11.10;99.00;;;9.54;73.58;98523.72;10329819;28;98856;-88
2023/03/08 20:05:01;;;;;;;11.40;6.10;;;11.10;99.20;;;9.50;73.28;98525.94;10341846;28;97118;-88
2023/03/08 20:10:04;;;;;;;7.83;5.50;;;11.10;99.20;;;9.50;73.29;98522.47;10312293;28;98115;-87
2023/03/08 20:15:17;;;;;;;8.73;5.30;;;11.10;99.30;;;9.47;73.29;98525.50;10329311;28;96613;-86
2023/03/08 20:20:21;;;;;;;7.73;4.53;;;11.00;99.30;;;9.39;72.98;98519.38;10311588;28;98226;-86
2023/03/08 20:25:24;;;;;;;6.20;3.70;;;11.00;99.30;;;9.34;73.20;98502.44;10357959;28;96604;-86
2023/03/08 20:30:28;;;;;;;5.03;3.47;;;10.90;99.40;;;9.23;73.47;98516.28;10314047;28;96695;-86
2023/03/08 20:35:31;;;;;;;5.80;2.77;;;10.80;99.40;;;9.17;73.94;98517.88;10315255;28;96642;-86
2023/03/08 20:40:34;;;;;;;5.20;2.80;;;10.70;99.60;;;9.21;73.58;98508.53;10307982;28;96554;-84
2023/03/08 20:45:39;;;;;;;5.00;2.73;;;10.80;99.80;;;9.27;73.55;98505.09;10312554;28;96690;-90
2023/03/08 20:50:42;;;;;;;5.23;3.07;;;10.80;99.80;;;9.32;73.38;98494.69;10328361;28;97414;-87
2023/03/08 20:55:45;;;;;;;4.73;2.80;;;10.80;99.70;;;9.32;73.21;98491.22;10331546;28;97416;-87
2023/03/08 21:00:49;;;;;;;4.47;2.60;;;10.80;99.60;;;9.48;72.54;98487.41;10292927;28;98285;-88
2023/03/08 21:05:52;;;;;;;3.80;2.00;;;10.90;99.50;;;9.54;71.86;98481.28;10347015;28;96560;-87
2023/03/08 21:10:58;;;;;;;4.90;2.30;;;11.00;99.20;;;9.55;71.78;98502.28;10330877;28;96536;-89
2023/03/08 21:16:04;;;;;;;4.17;2.17;;;11.00;99.00;;;9.68;71.08;98496.16;10310641;28;96596;-90